Time;durP1;ratioP1;P1;durP2;ratioP2;P2;SDS_P1;SDS_P2;PMS_P1;PMS_P2;Temp;Humidity;BMP_temperature;BMP_pressure;BME280_temperature;BME280_humidity;BME280_pressure;Samples;Min_cycle;Max_cycle;Signal;HPM_P1;HPM_P2
2023/09/03 00:02:53;;;;;;;;;13.00;12.00;;;;;20.92;100.00;99264.47;6233820;27;96579;-63
2023/09/03 00:05:56;;;;;;;;;15.00;14.00;;;;;20.90;100.00;99268.59;6275249;27;96858;-63
2023/09/03 00:09:01;;;;;;;;;11.00;11.00;;;;;20.71;100.00;99280.16;6206181;28;96615;-63
2023/09/03 00:12:05;;;;;;;;;13.00;12.00;;;;;20.60;100.00;99275.81;6261961;27;96990;-63
2023/09/03 00:15:09;;;;;;;;;15.00;13.00;;;;;20.53;100.00;99286.22;6190012;28;98694;-63
2023/09/03 00:18:14;;;;;;;;;13.25;12.25;;;;;20.50;100.00;99278.56;6184131;28;96568;-63
2023/09/03 00:21:18;;;;;;;;;14.00;13.60;;;;;20.49;100.00;99282.41;6184647;28;96406;-63
2023/09/03 00:24:23;;;;;;;;;15.67;14.33;;;;;20.50;100.00;99272.25;6250953;27;96870;-63
2023/09/03 00:27:26;;;;;;;;;16.20;15.00;;;;;20.52;100.00;99261.88;6269306;27;96399;-63
2023/09/03 00:30:29;;;;;;;;;14.25;13.50;;;;;20.53;100.00;99264.31;6252702;27;96964;-63
2023/09/03 00:33:33;;;;;;;;;18.00;15.00;;;;;20.49;100.00;99256.91;6186352;28;96544;-64
2023/09/03 00:36:36;;;;;;;;;14.25;13.00;;;;;20.47;100.00;99262.69;6253986;27;96482;-64
2023/09/03 00:39:41;;;;;;;;;12.80;11.80;;;;;20.43;100.00;99258.06;6236336;27;98525;-64
2023/09/03 00:42:44;;;;;;;;;14.60;13.60;;;;;20.37;100.00;99253.66;6323386;27;96502;-63
2023/09/03 00:45:48;;;;;;;;;16.25;14.50;;;;;20.36;100.00;99261.06;6259643;27;98996;-64
2023/09/03 00:48:53;;;;;;;;;15.00;12.40;;;;;20.36;100.00;99261.06;6210744;28;96912;-64
2023/09/03 00:51:57;;;;;;;;;14.00;13.75;;;;;20.38;100.00;99250.63;6196038;28;96290;-63
2023/09/03 00:55:02;;;;;;;;;11.40;11.00;;;;;20.39;100.00;99256.94;6277580;27;96394;-63
2023/09/03 00:58:06;;;;;;;;;15.00;13.60;;;;;20.39;100.00;99259.69;6269734;27;96428;-63
2023/09/03 01:01:10;;;;;;;;;13.00;13.00;;;;;20.38;100.00;99249.84;6256726;27;98616;-63
2023/09/03 01:04:13;;;;;;;;;14.00;14.00;;;;;20.35;100.00;99239.44;6186251;28;96136;-64
2023/09/03 01:07:18;;;;;;;;;14.00;12.40;;;;;20.26;100.00;99234.50;6252052;27;99204;-63
2023/09/03 01:10:28;;;;;;;;;13.00;13.00;;;;;20.19;100.00;99242.16;6253079;27;96150;-63
2023/09/03 01:13:38;;;;;;;;;16.20;14.20;;;;;20.18;100.00;99248.72;6252659;27;98005;-63
2023/09/03 01:16:49;;;;;;;;;12.00;12.00;;;;;20.13;100.00;99246.00;6253653;27;96162;-63
2023/09/03 01:20:07;;;;;;;;;15.00;12.00;;;;;20.09;100.00;99257.75;6186001;28;96382;-63
2023/09/03 01:23:30;;;;;;;;;12.00;11.60;;;;;20.05;100.00;99256.66;6252198;27;97007;-63
2023/09/03 01:26:53;;;;;;;;;15.00;13.60;;;;;20.04;100.00;99255.03;6254245;27;96942;-63
2023/09/03 01:29:59;;;;;;;;;13.00;12.50;;;;;20.06;100.00;99253.66;6252088;27;96873;-63
2023/09/03 01:33:03;;;;;;;;;13.75;13.00;;;;;20.11;100.00;99253.66;6253641;27;97090;-63
2023/09/03 01:36:09;;;;;;;;;12.40;12.00;;;;;20.13;100.00;99251.50;6254829;27;96344;-63
2023/09/03 01:39:13;;;;;;;;;14.00;13.25;;;;;20.11;100.00;99252.84;6269910;27;96703;-63
2023/09/03 01:42:16;;;;;;;;;12.60;12.00;;;;;20.01;100.00;99245.47;6185423;28;96411;-63
2023/09/03 01:45:23;;;;;;;;;17.00;16.40;;;;;19.94;100.00;99258.59;6269862;27;96306;-63
2023/09/03 01:48:41;;;;;;;;;14.80;13.40;;;;;19.83;100.00;99246.84;6191848;28;96669;-63
2023/09/03 01:51:57;;;;;;;;;12.00;12.00;;;;;19.96;100.00;99250.94;6260225;27;96676;-63
2023/09/03 01:55:03;;;;;;;;;14.00;13.50;;;;;19.98;100.00;99256.97;6194502;28;96415;-63
2023/09/03 01:58:08;;;;;;;;;13.00;13.00;;;;;19.96;100.00;99253.66;6260255;27;96912;-63
2023/09/03 02:01:13;;;;;;;;;14.00;13.00;;;;;19.94;100.00;99258.59;6278288;27;96359;-63
2023/09/03 02:04:17;;;;;;;;;15.40;15.00;;;;;19.97;100.00;99259.97;6198322;28;96503;-63
2023/09/03 02:07:20;;;;;;;;;14.40;13.00;;;;;19.99;100.00;99263.25;6263819;27;97572;-63
2023/09/03 02:10:23;;;;;;;;;15.20;14.60;;;;;19.99;100.00;99257.78;6260001;27;96615;-63
2023/09/03 02:13:26;;;;;;;;;15.00;14.00;;;;;20.00;100.00;99249.28;6201675;28;96517;-63
2023/09/03 02:16:31;;;;;;;;;12.40;10.40;;;;;19.98;100.00;99246.03;6210243;27;97538;-63
2023/09/03 02:19:34;;;;;;;;;14.60;13.60;;;;;19.96;100.00;99230.94;6251580;27;96742;-63
2023/09/03 02:22:38;;;;;;;;;15.00;14.75;;;;;19.91;100.00;99234.50;6184018;28;96282;-63
2023/09/03 02:25:42;;;;;;;;;12.20;11.80;;;;;19.91;100.00;99242.72;6232464;27;98485;-63
2023/09/03 02:28:45;;;;;;;;;12.00;11.00;;;;;19.88;100.00;99218.66;6258845;27;98636;-63
2023/09/03 02:31:49;;;;;;;;;14.00;13.60;;;;;19.88;100.00;99215.91;6186366;28;97243;-63
2023/09/03 02:34:52;;;;;;;;;11.80;10.00;;;;;19.89;100.00;99223.00;6252170;27;98682;-63
2023/09/03 02:37:56;;;;;;;;;14.00;13.00;;;;;19.82;100.00;99204.16;6268315;27;96286;-63
2023/09/03 02:40:59;;;;;;;;;12.40;12.40;;;;;19.75;100.00;99208.25;6258099;27;98809;-63
2023/09/03 02:44:03;;;;;;;;;15.20;13.20;;;;;19.70;100.00;99209.06;6259697;27;96826;-63
2023/09/03 02:47:07;;;;;;;;;12.00;10.60;;;;;19.68;100.00;99211.25;6197701;28;96439;-63
2023/09/03 02:50:10;;;;;;;;;13.00;12.60;;;;;19.65;100.00;99214.53;6209036;28;96387;-63
2023/09/03 02:53:14;;;;;;;;;13.50;13.00;;;;;19.58;100.00;99205.78;6277952;27;96527;-63
2023/09/03 02:56:17;;;;;;;;;16.40;14.00;;;;;19.56;100.00;99201.66;6259294;27;97227;-63
2023/09/03 02:59:20;;;;;;;;;13.75;13.00;;;;;19.57;100.00;99209.59;6276325;27;96230;-63
2023/09/03 03:02:25;;;;;;;;;14.00;13.00;;;;;19.52;100.00;99204.13;6265607;27;96594;-63
2023/09/03 03:05:28;;;;;;;;;15.00;14.00;;;;;19.48;100.00;99207.69;6245990;27;97242;-63
2023/09/03 03:08:31;;;;;;;;;13.20;12.00;;;;;19.45;100.00;99209.84;6250197;27;96674;-63
2023/09/03 03:11:35;;;;;;;;;14.20;13.20;;;;;19.45;100.00;99206.28;6251213;27;97099;-63
2023/09/03 03:14:38;;;;;;;;;14.75;13.00;;;;;19.45;100.00;99209.84;6251423;27;96508;-63
2023/09/03 03:17:43;;;;;;;;;14.60;13.60;;;;;19.48;100.00;99213.16;6268170;27;96377;-63
2023/09/03 03:20:46;;;;;;;;;16.00;15.80;;;;;19.52;100.00;99214.25;6183763;28;96420;-63
2023/09/03 03:23:52;;;;;;;;;14.00;13.50;;;;;19.55;100.00;99219.97;6267359;27;96890;-63
2023/09/03 03:27:04;;;;;;;;;17.00;15.00;;;;;19.57;100.00;99220.56;6251053;27;96530;-63
2023/09/03 03:30:08;;;;;;;;;13.00;13.00;;;;;19.60;100.00;99224.63;6252126;27;96465;-63
2023/09/03 03:33:14;;;;;;;;;15.00;14.00;;;;;19.63;100.00;99219.47;6251688;27;96645;-63
2023/09/03 03:36:20;;;;;;;;;14.40;14.40;;;;;19.67;100.00;99217.00;6183475;28;96274;-63
2023/09/03 03:39:23;;;;;;;;;15.00;14.00;;;;;19.69;100.00;99220.28;6250724;27;96857;-63
2023/09/03 03:42:27;;;;;;;;;16.40;16.00;;;;;19.71;100.00;99227.13;6255253;27;96275;-63
2023/09/03 03:45:33;;;;;;;;;14.00;13.00;;;;;19.74;100.00;99217.56;6201859;28;96817;-63
2023/09/03 03:48:39;;;;;;;;;12.80;12.20;;;;;19.78;100.00;99211.28;6281467;27;96496;-63
2023/09/03 03:51:42;;;;;;;;;13.00;12.50;;;;;19.77;100.00;99217.00;6262938;27;97682;-63
2023/09/03 03:54:48;;;;;;;;;14.00;14.00;;;;;19.78;100.00;99210.44;6274063;27;97751;-63
2023/09/03 03:57:51;;;;;;;;;12.60;12.60;;;;;19.80;100.00;99217.28;6211481;28;96474;-63
2023/09/03 04:00:55;;;;;;;;;16.60;14.60;;;;;19.83;100.00;99215.91;6273697;27;96347;-62
2023/09/03 04:03:59;;;;;;;;;17.00;15.00;;;;;19.84;100.00;99210.16;6255418;27;96443;-63
2023/09/03 04:07:03;;;;;;;;;13.60;12.00;;;;;19.90;100.00;99219.19;6262415;27;97025;-63
2023/09/03 04:10:07;;;;;;;;;13.00;11.00;;;;;19.96;100.00;99215.34;6209616;28;96880;-63
2023/09/03 04:13:10;;;;;;;;;10.00;9.00;;;;;20.03;100.00;99202.22;6258631;27;96720;-63
2023/09/03 04:16:14;;;;;;;;;9.80;9.80;;;;;20.09;100.00;99203.84;6273233;27;96926;-63
2023/09/03 04:19:21;;;;;;;;;12.00;11.00;;;;;20.17;100.00;99197.81;6271419;27;97146;-63
2023/09/03 04:22:24;;;;;;;;;12.40;11.00;;;;;20.22;100.00;99192.34;6252925;27;97511;-63
2023/09/03 04:25:27;;;;;;;;;12.50;11.50;;;;;20.26;100.00;99182.47;6259523;27;98140;-63
2023/09/03 04:28:31;;;;;;;;;10.50;9.00;;;;;20.35;100.00;99184.66;6259891;27;96263;-63
2023/09/03 04:31:36;;;;;;;;;11.40;10.80;;;;;20.41;100.00;99186.28;6270575;27;96811;-63
2023/09/03 04:34:41;;;;;;;;;10.00;9.60;;;;;20.45;100.00;99190.09;6273754;27;97506;-63
2023/09/03 04:37:44;;;;;;;;;9.00;9.00;;;;;20.51;100.00;99197.22;6202140;28;97696;-63
2023/09/03 04:40:48;;;;;;;;;12.00;11.00;;;;;20.56;100.00;99198.03;6263430;27;96366;-63
2023/09/03 04:44:06;;;;;;;;;10.00;9.00;;;;;20.69;100.00;99202.06;6251762;27;96997;-63
2023/09/03 04:47:13;;;;;;;;;10.00;8.50;;;;;20.80;100.00;99209.16;6273831;27;96353;-63
2023/09/03 04:50:17;;;;;;;;;11.40;10.00;;;;;20.87;100.00;99200.63;6267683;27;97483;-63
2023/09/03 04:53:21;;;;;;;;;11.00;10.40;;;;;20.93;100.00;99199.50;6196455;28;96954;-63
2023/09/03 04:56:24;;;;;;;;;12.00;9.40;;;;;21.00;100.00;99214.56;6261054;27;97451;-63
2023/09/03 04:59:29;;;;;;;;;9.00;8.60;;;;;21.08;100.00;99224.94;6275563;27;96446;-63
2023/09/03 05:02:32;;;;;;;;;10.00;10.00;;;;;21.14;100.00;99236.72;6197944;28;96664;-63
2023/09/03 05:05:41;;;;;;;;;8.80;8.40;;;;;21.20;100.00;99240.25;6258295;27;97245;-63
2023/09/03 05:08:48;;;;;;;;;9.75;9.75;;;;;21.19;100.00;99242.19;6269410;27;96422;-63
2023/09/03 05:11:52;;;;;;;;;9.00;8.00;;;;;21.23;100.00;99261.63;6235292;27;96923;-63
2023/09/03 05:14:55;;;;;;;;;10.60;9.60;;;;;21.25;100.00;99281.38;6268272;27;96692;-63
2023/09/03 05:17:59;;;;;;;;;15.00;14.00;;;;;21.22;100.00;99274.50;6250285;27;98422;-64
2023/09/03 05:21:08;;;;;;;;;14.80;13.80;;;;;21.12;100.00;99278.09;6253770;27;96447;-63
2023/09/03 05:24:12;;;;;;;;;14.00;13.00;;;;;21.05;100.00;99252.91;6256955;27;96720;-63
2023/09/03 05:27:16;;;;;;;;;14.00;12.00;;;;;21.09;100.00;99253.16;6278149;27;96581;-63
2023/09/03 05:30:19;;;;;;;;;14.80;13.80;;;;;20.97;100.00;99248.00;6276317;27;96330;-63
2023/09/03 05:33:23;;;;;;;;;17.00;15.00;;;;;20.94;100.00;99255.97;6270352;27;96871;-63
2023/09/03 05:36:27;;;;;;;;;13.67;13.67;;;;;20.97;100.00;99258.97;6269531;27;98462;-63
2023/09/03 05:39:31;;;;;;;;;15.75;13.75;;;;;21.00;100.00;99265.81;6270441;27;96339;-63
2023/09/03 05:42:34;;;;;;;;;14.60;12.60;;;;;20.98;100.00;99265.25;6265793;27;97448;-63
2023/09/03 05:45:44;;;;;;;;;14.00;12.00;;;;;21.03;100.00;99252.34;6277752;27;96514;-63
2023/09/03 05:48:50;;;;;;;;;13.40;12.40;;;;;21.07;100.00;99252.59;6272567;27;96641;-63
2023/09/03 05:51:55;;;;;;;;;13.80;12.40;;;;;21.14;100.00;99264.13;6253053;27;96319;-63
2023/09/03 05:54:59;;;;;;;;;15.40;15.00;;;;;21.20;100.00;99264.94;6269108;27;96526;-63
2023/09/03 05:58:02;;;;;;;;;13.60;12.20;;;;;21.23;100.00;99284.38;6275624;27;96827;-63
2023/09/03 06:01:07;;;;;;;;;16.00;14.40;;;;;21.24;100.00;99285.19;6259221;27;97035;-63
2023/09/03 06:04:14;;;;;;;;;15.00;14.00;;;;;21.14;100.00;99277.84;6266780;27;96288;-63
2023/09/03 06:07:20;;;;;;;;;14.00;13.60;;;;;21.11;100.00;99268.22;6265894;27;96392;-63
2023/09/03 06:10:23;;;;;;;;;15.00;13.00;;;;;21.13;100.00;99281.66;6251297;27;97269;-63
2023/09/03 06:13:27;;;;;;;;;16.00;14.75;;;;;21.14;100.00;99281.41;6258108;27;96815;-62
2023/09/03 06:16:30;;;;;;;;;14.00;12.25;;;;;21.22;100.00;99280.00;6191027;28;96215;-63
2023/09/03 06:19:33;;;;;;;;;14.50;14.00;;;;;21.32;100.00;99281.84;6193738;28;96662;-63
2023/09/03 06:22:38;;;;;;;;;12.50;12.00;;;;;21.34;100.00;99280.50;6193784;28;97704;-63
2023/09/03 06:25:41;;;;;;;;;13.00;12.00;;;;;21.36;100.00;99270.03;6182833;28;96862;-63
2023/09/03 06:28:44;;;;;;;;;13.00;12.00;;;;;21.43;100.00;99276.06;6189609;28;96373;-63
2023/09/03 06:31:47;;;;;;;;;16.00;14.40;;;;;21.52;100.00;99263.38;6194807;28;96396;-63
2023/09/03 06:34:51;;;;;;;;;14.00;11.25;;;;;21.57;100.00;99271.56;6188771;28;96842;-63
2023/09/03 06:37:57;;;;;;;;;11.20;11.20;;;;;21.73;100.00;99274.22;6187355;27;96610;-63
2023/09/03 06:41:00;;;;;;;;;12.00;12.00;;;;;21.79;100.00;99273.09;6263756;27;98810;-63
2023/09/03 06:44:04;;;;;;;;;13.40;13.40;;;;;21.92;100.00;99286.97;6254971;27;96719;-63
2023/09/03 06:47:07;;;;;;;;;13.00;11.60;;;;;22.02;100.00;99294.34;6190738;28;96708;-63
2023/09/03 06:50:11;;;;;;;;;14.00;12.20;;;;;22.10;100.00;99298.38;6241248;27;96752;-63
2023/09/03 06:53:17;;;;;;;;;15.00;13.50;;;;;22.11;100.00;99287.13;6191463;28;96996;-63
2023/09/03 06:56:23;;;;;;;;;14.00;13.00;;;;;22.18;100.00;99290.38;6258455;27;96499;-63
2023/09/03 06:59:26;;;;;;;;;13.60;12.60;;;;;22.20;100.00;99290.88;6199513;28;97885;-63
2023/09/03 07:02:36;;;;;;;;;13.00;12.00;;;;;22.20;100.00;99304.63;6244875;27;96829;-63
2023/09/03 07:05:40;;;;;;;;;11.60;11.00;;;;;22.11;100.00;99298.13;6195155;28;96487;-64
2023/09/03 07:08:44;;;;;;;;;13.80;12.80;;;;;22.07;100.00;99299.78;6274947;27;96380;-64
2023/09/03 07:11:47;;;;;;;;;12.00;12.00;;;;;22.04;100.00;99305.84;6263110;27;96556;-63
2023/09/03 07:14:51;;;;;;;;;12.00;11.40;;;;;22.02;100.00;99300.66;6269933;27;98472;-64
2023/09/03 07:17:54;;;;;;;;;11.00;10.00;;;;;21.94;100.00;99292.22;6191288;28;96865;-64
2023/09/03 07:21:05;;;;;;;;;12.00;11.00;;;;;21.88;100.00;99294.16;6189516;28;97011;-64
2023/09/03 07:24:11;;;;;;;;;10.00;9.40;;;;;21.87;100.00;99283.44;6199674;28;96894;-64
2023/09/03 07:27:14;;;;;;;;;14.40;14.00;;;;;21.99;100.00;99300.41;6264746;27;97611;-64
2023/09/03 07:30:17;;;;;;;;;12.00;12.00;;;;;22.12;100.00;99286.03;6194943;28;96759;-64
2023/09/03 07:33:20;;;;;;;;;13.40;12.60;;;;;22.27;100.00;99287.81;6192853;28;96689;-64
2023/09/03 07:36:23;;;;;;;;;10.00;10.00;;;;;22.40;100.00;99289.88;6252257;27;98581;-63
2023/09/03 07:39:28;;;;;;;;;9.20;9.20;;;;;22.39;100.00;99297.31;6193336;28;97608;-64
2023/09/03 07:42:31;;;;;;;;;9.00;9.00;;;;;22.40;100.00;99315.44;6198842;28;97212;-64
2023/09/03 07:45:34;;;;;;;;;10.33;10.33;;;;;22.40;100.00;99326.44;6264896;27;96744;-63
2023/09/03 07:48:38;;;;;;;;;12.00;11.80;;;;;22.38;100.00;99331.38;6199057;27;96749;-64
2023/09/03 07:51:41;;;;;;;;;10.60;10.00;;;;;22.39;100.00;99338.53;6270353;27;96588;-64
2023/09/03 07:54:45;;;;;;;;;10.20;10.20;;;;;22.38;100.00;99358.06;6266417;27;97042;-64
2023/09/03 07:57:49;;;;;;;;;13.00;11.67;;;;;22.28;100.00;99361.72;6266299;27;98619;-64
2023/09/03 08:00:52;;;;;;;;;12.00;11.00;;;;;22.19;100.00;99362.56;6251867;27;96537;-64
2023/09/03 08:03:58;;;;;;;;;13.00;12.75;;;;;22.06;100.00;99344.00;6193778;28;96398;-64
2023/09/03 08:07:03;;;;;;;;;14.00;11.60;;;;;21.94;100.00;99331.44;6199706;28;96480;-64
2023/09/03 08:10:14;;;;;;;;;14.75;13.00;;;;;21.99;100.00;99330.63;6210060;28;96294;-64
2023/09/03 08:13:18;;;;;;;;;14.60;13.00;;;;;21.99;100.00;99336.91;6262322;27;96703;-64
2023/09/03 08:16:21;;;;;;;;;13.00;11.60;;;;;22.09;100.00;99348.94;6211691;28;96377;-64
2023/09/03 08:19:24;;;;;;;;;15.00;13.20;;;;;22.17;100.00;99359.31;6210162;28;96401;-64
2023/09/03 08:22:27;;;;;;;;;11.60;10.60;;;;;22.25;100.00;99364.19;6276493;27;97079;-64
2023/09/03 08:25:32;;;;;;;;;9.00;8.00;;;;;22.27;100.00;99360.06;6198695;28;96426;-64
2023/09/03 08:28:35;;;;;;;;;11.20;9.80;;;;;22.40;100.00;99362.16;6251321;27;98459;-64
2023/09/03 08:31:38;;;;;;;;;11.20;9.20;;;;;22.72;100.00;99363.56;6254177;27;96915;-64
2023/09/03 08:34:42;;;;;;;;;10.00;9.00;;;;;23.20;100.00;99367.16;6278360;27;96871;-64
2023/09/03 08:37:45;;;;;;;;;11.00;10.00;;;;;23.77;100.00;99368.94;6184220;28;96468;-64
2023/09/03 08:40:51;;;;;;;;;9.20;8.00;;;;;24.10;100.00;99381.66;6266006;27;98429;-64
2023/09/03 08:43:55;;;;;;;;;11.00;10.00;;;;;24.25;100.00;99375.13;6256228;27;96736;-64
2023/09/03 08:47:01;;;;;;;;;13.60;13.00;;;;;24.24;100.00;99372.72;6269143;27;96840;-64
2023/09/03 08:50:05;;;;;;;;;12.00;11.00;;;;;24.30;100.00;99390.78;6194428;28;96981;-64
2023/09/03 08:53:09;;;;;;;;;9.00;8.00;;;;;24.44;100.00;99400.75;6266090;27;97068;-64
2023/09/03 08:56:14;;;;;;;;;11.00;10.00;;;;;24.57;100.00;99396.41;6194719;28;96874;-64
2023/09/03 08:59:17;;;;;;;;;9.20;9.20;;;;;25.07;100.00;99402.19;6262547;27;96594;-64
2023/09/03 09:02:26;;;;;;;;;9.00;8.00;;;;;25.31;100.00;99395.38;6255000;27;96899;-64
2023/09/03 09:05:30;;;;;;;;;9.00;8.00;;;;;25.90;100.00;99398.31;6200651;28;96624;-64
2023/09/03 09:08:39;;;;;;;;;9.00;8.60;;;;;26.41;100.00;99404.31;6196172;28;96297;-64
2023/09/03 09:11:55;;;;;;;;;12.00;11.00;;;;;26.87;100.00;99411.53;6210375;28;96870;-64
2023/09/03 09:15:02;;;;;;;;;10.20;10.20;;;;;27.46;100.00;99412.97;6262921;27;96702;-64
2023/09/03 09:18:09;;;;;;;;;9.50;9.50;;;;;28.11;100.00;99401.06;6276296;27;97802;-65
2023/09/03 09:21:12;;;;;;;;;12.00;11.00;;;;;28.31;100.00;99411.53;6269617;27;97433;-64
2023/09/03 09:24:16;;;;;;;;;9.00;8.60;;;;;28.40;100.00;99417.91;6279326;27;98458;-64
2023/09/03 09:27:22;;;;;;;;;13.40;13.00;;;;;28.24;100.00;99414.00;6273300;27;96928;-64
2023/09/03 09:30:26;;;;;;;;;10.00;10.00;;;;;28.05;100.00;99421.78;6204994;28;96389;-64
2023/09/03 09:33:29;;;;;;;;;14.00;12.00;;;;;28.07;100.00;99417.53;6198091;28;96759;-65
2023/09/03 09:36:32;;;;;;;;;14.00;13.00;;;;;28.16;100.00;99404.53;6185654;28;96500;-64
2023/09/03 09:39:42;;;;;;;;;12.40;11.40;;;;;28.20;100.00;99413.03;6272499;27;96321;-64
2023/09/03 09:42:55;;;;;;;;;13.00;12.00;;;;;28.08;100.00;99416.41;6192652;28;97226;-64
2023/09/03 09:45:58;;;;;;;;;10.20;9.60;;;;;28.52;100.00;99420.03;6185683;28;96258;-65
2023/09/03 09:49:03;;;;;;;;;8.60;8.60;;;;;28.86;100.00;99400.59;6239221;27;96784;-64
2023/09/03 09:52:06;;;;;;;;;12.80;11.80;;;;;29.22;100.00;99412.06;6185310;28;96398;-65
2023/09/03 09:55:17;;;;;;;;;11.00;10.00;;;;;29.57;100.00;99420.28;6263392;27;96846;-64
2023/09/03 09:58:22;;;;;;;;;12.00;10.75;;;;;29.51;100.00;99400.25;6206052;28;96580;-64
2023/09/03 10:01:27;;;;;;;;;13.00;12.00;;;;;29.12;100.00;99406.09;6251859;27;96405;-64
2023/09/03 10:04:30;;;;;;;;;10.25;10.25;;;;;29.25;100.00;99400.31;6185085;27;96529;-64
2023/09/03 10:07:34;;;;;;;;;9.00;9.00;;;;;29.85;100.00;99402.00;6192426;28;96931;-64
2023/09/03 10:10:38;;;;;;;;;10.40;9.40;;;;;30.58;100.00;99396.91;6277101;27;97659;-65
2023/09/03 10:13:42;;;;;;;;;10.20;10.20;;;;;31.07;100.00;99397.09;6275802;27;96775;-65
2023/09/03 10:16:47;;;;;;;;;9.00;8.40;;;;;31.42;100.00;99398.31;6275796;27;97397;-65
2023/09/03 10:19:54;;;;;;;;;11.40;11.40;;;;;31.19;100.00;99383.16;6265566;27;97295;-64
2023/09/03 10:23:00;;;;;;;;;9.80;9.00;;;;;30.92;100.00;99382.66;6233161;27;97482;-64
2023/09/03 10:26:07;;;;;;;;;11.75;10.75;;;;;30.55;100.00;99392.81;6182501;28;96359;-64
2023/09/03 10:29:14;;;;;;;;;12.25;11.50;;;;;30.10;100.00;99392.69;6183957;28;96560;-65
2023/09/03 10:32:19;;;;;;;;;12.50;11.50;;;;;29.52;100.00;99384.34;6183999;28;96354;-65
2023/09/03 10:35:23;;;;;;;;;14.40;13.40;;;;;28.70;100.00;99374.47;6250953;27;97026;-65
2023/09/03 10:38:31;;;;;;;;;14.00;12.60;;;;;27.95;100.00;99384.09;6265808;27;98405;-64
2023/09/03 10:41:34;;;;;;;;;11.00;10.00;;;;;27.50;100.00;99377.97;6190537;28;96463;-64
2023/09/03 10:44:42;;;;;;;;;9.25;9.00;;;;;27.19;100.00;99363.31;6275017;27;96849;-67
2023/09/03 10:48:00;;;;;;;;;13.60;12.00;;;;;26.78;100.00;99375.44;6195372;28;96350;-68
2023/09/03 10:51:04;;;;;;;;;13.50;12.50;;;;;26.53;100.00;99378.88;6188990;28;98489;-68
2023/09/03 10:54:18;;;;;;;;;13.00;13.00;;;;;27.07;100.00;99384.09;6191412;28;96846;-67
2023/09/03 10:57:21;;;;;;;;;11.80;10.40;;;;;27.93;100.00;99366.97;6191244;27;97412;-66
2023/09/03 11:00:26;;;;;;;;;11.00;10.50;;;;;29.02;100.00;99381.44;6204840;28;96354;-68
2023/09/03 11:03:44;;;;;;;;;10.50;10.50;;;;;29.56;100.00;99377.81;6157605;28;97094;-68
2023/09/03 11:07:23;;;;;;;;;11.40;11.00;;;;;29.85;100.00;99385.31;6155822;27;96707;-68
2023/09/03 11:10:42;;;;;;;;;12.00;11.00;;;;;29.80;100.00;99393.03;6143671;27;97478;-68
2023/09/03 11:13:49;;;;;;;;;10.00;10.00;;;;;29.74;100.00;99389.63;6151664;27;97751;-68
2023/09/03 11:16:54;;;;;;;;;11.80;11.80;;;;;30.12;100.00;99386.78;6287323;27;96587;-68
2023/09/03 11:19:58;;;;;;;;;9.60;9.00;;;;;30.65;100.00;99374.06;6265051;27;96973;-68
2023/09/03 11:23:02;;;;;;;;;13.00;12.00;;;;;30.72;100.00;99372.38;6156730;28;96957;-68
2023/09/03 11:26:13;;;;;;;;;11.00;10.80;;;;;30.32;100.00;99365.69;6141409;28;96444;-68
2023/09/03 11:29:21;;;;;;;;;11.00;11.00;;;;;29.84;100.00;99375.34;6161767;28;97290;-68
2023/09/03 11:32:37;;;;;;;;;16.25;13.25;;;;;29.10;100.00;99370.31;6182989;27;97274;-68
2023/09/03 11:35:43;;;;;;;;;13.60;12.00;;;;;28.56;100.00;99371.06;6156182;28;98038;-68
2023/09/03 11:38:46;;;;;;;;;11.60;11.60;;;;;28.96;100.00;99358.59;6157200;28;96505;-68
2023/09/03 11:41:50;;;;;;;;;11.00;11.00;;;;;29.41;100.00;99364.50;6158929;27;98733;-67
2023/09/03 11:44:53;;;;;;;;;13.00;12.25;;;;;29.84;100.00;99361.44;6159076;27;98360;-68
2023/09/03 11:47:58;;;;;;;;;14.60;12.60;;;;;29.95;100.00;99362.72;6153209;28;96727;-68
2023/09/03 11:51:01;;;;;;;;;12.25;12.00;;;;;29.89;100.00;99366.03;6157243;27;96487;-68
2023/09/03 11:54:05;;;;;;;;;10.40;10.00;;;;;30.15;100.00;99355.53;6157144;28;96915;-68
2023/09/03 11:57:12;;;;;;;;;9.00;8.00;;;;;30.82;100.00;99354.41;6140893;27;96855;-68
2023/09/03 12:00:16;;;;;;;;;8.40;8.00;;;;;31.42;100.00;99360.06;6159039;27;96497;-68
2023/09/03 12:03:21;;;;;;;;;5.20;5.20;;;;;31.92;100.00;99349.72;6190193;27;96708;-68
2023/09/03 12:06:25;;;;;;;;;8.00;8.00;;;;;32.09;100.00;99344.69;6266706;27;96751;-68
2023/09/03 12:09:28;;;;;;;;;9.00;8.50;;;;;32.42;93.74;99344.47;6190511;27;97047;-68
2023/09/03 12:12:31;;;;;;;;;7.50;6.50;;;;;32.63;89.56;99333.09;6272656;27;96371;-68
2023/09/03 12:15:35;;;;;;;;;7.00;7.00;;;;;32.89;90.33;99327.84;6274583;27;96323;-68
2023/09/03 12:18:40;;;;;;;;;10.00;9.60;;;;;33.15;86.61;99329.28;6272203;27;96316;-68
2023/09/03 12:21:43;;;;;;;;;9.00;9.00;;;;;33.36;85.86;99325.09;6256018;27;97083;-66
2023/09/03 12:24:47;;;;;;;;;6.00;5.20;;;;;33.70;87.92;99328.28;6186339;28;96531;-68
2023/09/03 12:27:50;;;;;;;;;9.00;8.00;;;;;34.00;81.45;99325.75;6191280;28;97408;-68
2023/09/03 12:30:55;;;;;;;;;9.00;9.00;;;;;34.11;80.68;99336.00;6267678;27;98475;-69
2023/09/03 12:34:02;;;;;;;;;7.20;7.20;;;;;33.88;83.57;99335.91;6245403;27;98386;-68
2023/09/03 12:37:06;;;;;;;;;7.20;6.60;;;;;33.82;81.34;99331.75;6280761;27;98702;-68
2023/09/03 12:40:10;;;;;;;;;9.00;9.00;;;;;33.73;83.95;99330.34;6246869;27;98996;-68
2023/09/03 12:43:13;;;;;;;;;8.00;8.00;;;;;33.42;79.32;99339.59;6195150;28;97695;-68
2023/09/03 12:46:17;;;;;;;;;9.50;8.75;;;;;33.18;81.82;99334.22;6266697;27;96403;-68
2023/09/03 12:49:21;;;;;;;;;6.80;6.00;;;;;32.86;81.69;99331.34;6230185;27;96456;-68
2023/09/03 12:52:24;;;;;;;;;10.00;9.00;;;;;32.57;87.63;99342.91;6203862;28;96323;-68
2023/09/03 12:55:28;;;;;;;;;8.20;8.00;;;;;32.25;80.21;99339.22;6255597;27;98552;-68
2023/09/03 12:58:31;;;;;;;;;11.80;11.80;;;;;31.80;80.46;99340.25;6262424;27;96353;-68
2023/09/03 13:01:36;;;;;;;;;10.00;10.00;;;;;31.47;84.82;99333.97;6251177;27;96880;-67
2023/09/03 13:04:40;;;;;;;;;9.40;9.40;;;;;31.07;87.69;99338.59;6211912;27;96310;-68
2023/09/03 13:07:43;;;;;;;;;10.00;10.00;;;;;30.62;88.36;99321.91;6247528;27;96833;-68
2023/09/03 13:10:47;;;;;;;;;9.50;8.00;;;;;30.38;90.47;99333.72;6277847;27;96347;-68
2023/09/03 13:13:50;;;;;;;;;8.00;8.00;;;;;30.12;93.64;99334.78;6253269;27;96746;-68
2023/09/03 13:16:53;;;;;;;;;11.80;9.80;;;;;30.43;94.94;99330.72;6199338;28;96488;-67
2023/09/03 13:19:58;;;;;;;;;9.00;8.00;;;;;30.61;97.31;99323.84;6252371;27;98440;-68
2023/09/03 13:23:01;;;;;;;;;12.00;10.40;;;;;30.58;93.25;99324.56;6202877;27;96445;-68
2023/09/03 13:26:05;;;;;;;;;8.00;7.20;;;;;30.61;94.88;99328.59;6211481;27;96437;-68
2023/09/03 13:29:08;;;;;;;;;10.00;10.00;;;;;30.92;96.51;99332.53;6279482;27;96866;-68
2023/09/03 13:32:11;;;;;;;;;12.00;11.00;;;;;31.33;97.16;99333.50;6275593;27;98362;-68
2023/09/03 13:35:16;;;;;;;;;10.00;9.50;;;;;31.49;88.51;99320.50;6262014;27;96761;-69
2023/09/03 13:38:19;;;;;;;;;12.00;12.00;;;;;31.60;84.14;99327.25;6204153;28;96375;-68
2023/09/03 13:41:23;;;;;;;;;11.40;10.40;;;;;31.43;91.25;99321.88;6210259;28;96374;-69
2023/09/03 13:44:27;;;;;;;;;11.00;11.00;;;;;31.14;89.59;99322.94;6263039;27;96021;-68
2023/09/03 13:47:30;;;;;;;;;11.00;11.00;;;;;30.82;83.92;99332.97;6270074;27;97381;-68
2023/09/03 13:50:34;;;;;;;;;11.00;11.00;;;;;30.91;88.07;99321.72;6278093;27;96317;-67
2023/09/03 13:53:38;;;;;;;;;9.60;9.60;;;;;31.04;87.09;99325.34;6267355;27;98449;-68
2023/09/03 13:56:41;;;;;;;;;12.00;11.00;;;;;31.28;92.32;99328.16;6255272;27;96779;-68
2023/09/03 13:59:45;;;;;;;;;10.80;10.00;;;;;31.32;86.56;99331.88;6196059;27;96695;-68
2023/09/03 14:02:49;;;;;;;;;11.00;11.00;;;;;31.19;88.83;99333.84;6205817;27;96372;-68
2023/09/03 14:06:04;;;;;;;;;13.25;13.25;;;;;30.98;89.94;99330.34;6295867;27;96297;-68
2023/09/03 14:09:07;;;;;;;;;11.00;11.00;;;;;30.82;89.62;99323.81;6260932;27;96910;-68